MV Moseldijk — PBWK — position and weather

sailwx.info

Track history (hours):
 
Tides and Currents Weather Stations Pressure Air Temp Water Temp Dewpoint Dewpoint Depression Visibility Wind Speed Wind Dir Waves Ship Positions

MV Moseldijk

Last reported at 2016-Dec-05 09:26 UTC. Time now 2016-Dec-09 09:45 UTC.
Position N 47°06' W 005°25'.

Length 90 m; draft 4 m.

Type: Cargo ship. MMSI: 246644000.

Date/timePositionNaut miles runAvg speedWind from/ knotsBaromVisibWave heightAir tempDewpointWater temp
2016-Dec-05 09:26N 47°06' W 005°25'198 8.6
2016-Dec-04 10:22N 50°23' W 005°58'911.6
2016-Dec-04 09:33N 50°29' W 005°47'1111.3
2016-Dec-04 08:33N 50°36' W 005°33'1110.9
2016-Dec-04 07:33N 50°44' W 005°20'1110.8
2016-Dec-04 06:33N 50°51' W 005°07'1110.6
2016-Dec-04 05:33N 50°57' W 004°54'1110.6
2016-Dec-04 04:33N 51°04' W 004°42'1110.9
2016-Dec-04 03:31N 51°12' W 004°28'1211.5
2016-Dec-04 02:27N 51°17' W 004°11'4013.8
2016-Dec-03 23:33N 51°24' W 003°08'1514.8
2016-Dec-03 22:33N 51°30' W 002°46'1211.6
2016-Dec-03 21:33N 51°40' W 002°35'5 4.6
2016-Dec-03 20:25N 51°43' W 002°29'0 0.0
2016-Dec-03 06:29N 51°43' W 002°29'0 0.0
2016-Dec-03 05:23N 51°43' W 002°29'0 0.0
2016-Dec-02 13:08N 51°43' W 002°29'0 0.0
2016-Dec-02 10:32N 51°43' W 002°29'0 0.0
2016-Dec-01 10:25N 51°43' W 002°29'0 0.2
2016-Dec-01 08:25N 51°43' W 002°29'6 6.7
2016-Dec-01 07:33N 51°39' W 002°37'1010.4
2016-Dec-01 06:34N 51°30' W 002°44'1110.9
2016-Dec-01 05:34N 51°26' W 003°00'15 6.2
2016-Dec-01 03:08N 51°19' W 003°21'0 0.1
2016-Nov-30 23:26N 51°19' W 003°22'37 4.6
2016-Nov-30 15:21N 51°14' W 004°20'1012.3
2016-Nov-30 14:33N 51°07' W 004°31'1211.6
2016-Nov-30 13:33N 50°58' W 004°43'1010.2
2016-Nov-30 12:33N 50°51' W 004°55'1010.3
2016-Nov-30 11:33N 50°44' W 005°07'10 9.9
2016-Nov-30 10:33N 50°38' W 005°19'10 9.7
2016-Nov-30 09:33N 50°33' W 005°31'10 9.7
2016-Nov-30 08:33N 50°27' W 005°44'42 9.6
2016-Nov-30 04:10N 49°45' W 005°49'710.6
2016-Nov-30 03:31N 49°39' W 005°55'40 9.2
2016-Nov-29 23:09N 49°00' W 006°08'7 7.8
2016-Nov-29 22:16N 48°54' W 006°12'6 7.7
2016-Nov-29 21:30N 48°48' W 006°14'  
Track history (hours):
 
Tides and Currents Weather Stations Pressure Air Temp Water Temp Dewpoint Dewpoint Depression Visibility Wind Speed Wind Dir Waves Ship Positions

MV Moseldijk

Last reported at 2016-Dec-05 09:26 UTC. Time now 2016-Dec-09 09:45 UTC.
Position N 47°06' W 005°25'.

Length 90 m; draft 4 m.

Type: Cargo ship. MMSI: 246644000.

Date/timePositionNaut miles runAvg speedWind from/ knotsBaromVisibWave heightAir tempDewpointWater temp
2016-Dec-05 09:26N 47°06' W 005°25'198 8.6
2016-Dec-04 10:22N 50°23' W 005°58'911.6
2016-Dec-04 09:33N 50°29' W 005°47'1111.3
2016-Dec-04 08:33N 50°36' W 005°33'1110.9
2016-Dec-04 07:33N 50°44' W 005°20'1110.8
2016-Dec-04 06:33N 50°51' W 005°07'1110.6
2016-Dec-04 05:33N 50°57' W 004°54'1110.6
2016-Dec-04 04:33N 51°04' W 004°42'1110.9
2016-Dec-04 03:31N 51°12' W 004°28'1211.5
2016-Dec-04 02:27N 51°17' W 004°11'4013.8
2016-Dec-03 23:33N 51°24' W 003°08'1514.8
2016-Dec-03 22:33N 51°30' W 002°46'1211.6
2016-Dec-03 21:33N 51°40' W 002°35'5 4.6
2016-Dec-03 20:25N 51°43' W 002°29'0 0.0
2016-Dec-03 06:29N 51°43' W 002°29'0 0.0
2016-Dec-03 05:23N 51°43' W 002°29'0 0.0
2016-Dec-02 13:08N 51°43' W 002°29'0 0.0
2016-Dec-02 10:32N 51°43' W 002°29'0 0.0
2016-Dec-01 10:25N 51°43' W 002°29'0 0.2
2016-Dec-01 08:25N 51°43' W 002°29'6 6.7
2016-Dec-01 07:33N 51°39' W 002°37'1010.4
2016-Dec-01 06:34N 51°30' W 002°44'1110.9
2016-Dec-01 05:34N 51°26' W 003°00'15 6.2
2016-Dec-01 03:08N 51°19' W 003°21'0 0.1
2016-Nov-30 23:26N 51°19' W 003°22'37 4.6
2016-Nov-30 15:21N 51°14' W 004°20'1012.3
2016-Nov-30 14:33N 51°07' W 004°31'1211.6
2016-Nov-30 13:33N 50°58' W 004°43'1010.2
2016-Nov-30 12:33N 50°51' W 004°55'1010.3
2016-Nov-30 11:33N 50°44' W 005°07'10 9.9
2016-Nov-30 10:33N 50°38' W 005°19'10 9.7
2016-Nov-30 09:33N 50°33' W 005°31'10 9.7
2016-Nov-30 08:33N 50°27' W 005°44'42 9.6
2016-Nov-30 04:10N 49°45' W 005°49'710.6
2016-Nov-30 03:31N 49°39' W 005°55'40 9.2
2016-Nov-29 23:09N 49°00' W 006°08'7 7.8
2016-Nov-29 22:16N 48°54' W 006°12'6 7.7
2016-Nov-29 21:30N 48°48' W 006°14'  

Dump ship's entire track history